MOL Partner — 3EBZ5 — position and weather

sailwx.info

Track history (hours):
 
Tides and Currents Weather Stations Pressure Air Temp Water Temp Dewpoint Dewpoint Depression Visibility Wind Speed Wind Dir Waves Ship Positions

MOL Partner

Last reported at 2014-Oct-16 08:27 UTC. Time now 2014-Oct-21 13:32 UTC.
Position N 37°05' W 071°36'.

Length 293 m; draft 11 m.

Type: Ship (hazmat cat D). MMSI: 371303000.

Date/timePositionNaut miles runAvg speedWind from/ knotsBaromVisibWave heightAir tempDewpointWater temp
2014-Oct-16 08:27N 37°05' W 071°36'1616.5
2014-Oct-16 07:30N 37°01' W 071°55'  
2014-Oct-09 08:33N 34°09' W 076°20'1212.3
2014-Oct-09 07:33N 34°17' W 076°09'1211.9
2014-Oct-09 06:34N 34°26' W 075°58'1211.7
2014-Oct-09 05:33N 34°33' W 075°48'1211.9
2014-Oct-09 04:33N 34°42' W 075°37'12810.3
2014-Oct-08 16:11N 36°49' W 075°46'1012.6
2014-Oct-08 15:25N 36°55' W 075°56'1012.1
2014-Oct-08 14:33N 36°59' W 076°08'10 9.8
2014-Oct-08 13:32N 36°56' W 076°20'2 0.6
2014-Oct-08 10:27N 36°55' W 076°20'0 0.0
2014-Oct-08 04:30N 36°55' W 076°20'0 0.0
2014-Oct-08 00:21N 36°55' W 076°20'0 0.0
2014-Oct-07 23:18N 36°55' W 076°20'0 0.0
2014-Oct-07 19:33N 36°55' W 076°20'5 4.2
2014-Oct-07 18:28N 36°59' W 076°19'1010.9
2014-Oct-07 17:33N 36°58' W 076°07'1110.9
2014-Oct-07 16:31N 36°54' W 075°54'1514.4
2014-Oct-07 15:30N 36°51' W 075°36'  
Track history (hours):
 
Tides and Currents Weather Stations Pressure Air Temp Water Temp Dewpoint Dewpoint Depression Visibility Wind Speed Wind Dir Waves Ship Positions

MOL Partner

Last reported at 2014-Oct-16 08:27 UTC. Time now 2014-Oct-21 13:32 UTC.
Position N 37°05' W 071°36'.

Length 293 m; draft 11 m.

Type: Ship (hazmat cat D). MMSI: 371303000.

Date/timePositionNaut miles runAvg speedWind from/ knotsBaromVisibWave heightAir tempDewpointWater temp
2014-Oct-16 08:27N 37°05' W 071°36'1616.5
2014-Oct-16 07:30N 37°01' W 071°55'  
2014-Oct-09 08:33N 34°09' W 076°20'1212.3
2014-Oct-09 07:33N 34°17' W 076°09'1211.9
2014-Oct-09 06:34N 34°26' W 075°58'1211.7
2014-Oct-09 05:33N 34°33' W 075°48'1211.9
2014-Oct-09 04:33N 34°42' W 075°37'12810.3
2014-Oct-08 16:11N 36°49' W 075°46'1012.6
2014-Oct-08 15:25N 36°55' W 075°56'1012.1
2014-Oct-08 14:33N 36°59' W 076°08'10 9.8
2014-Oct-08 13:32N 36°56' W 076°20'2 0.6
2014-Oct-08 10:27N 36°55' W 076°20'0 0.0
2014-Oct-08 04:30N 36°55' W 076°20'0 0.0
2014-Oct-08 00:21N 36°55' W 076°20'0 0.0
2014-Oct-07 23:18N 36°55' W 076°20'0 0.0
2014-Oct-07 19:33N 36°55' W 076°20'5 4.2
2014-Oct-07 18:28N 36°59' W 076°19'1010.9
2014-Oct-07 17:33N 36°58' W 076°07'1110.9
2014-Oct-07 16:31N 36°54' W 075°54'1514.4
2014-Oct-07 15:30N 36°51' W 075°36'  

Dump ship's entire track history